Time;durP1;ratioP1;P1;durP2;ratioP2;P2;SDS_P1;SDS_P2;PMS_P1;PMS_P2;Temp;Humidity;BMP_temperature;BMP_pressure;BME280_temperature;BME280_humidity;BME280_pressure;Samples;Min_cycle;Max_cycle;Signal;HPM_P1;HPM_P2
2022/04/25 00:01:00;;;;;;;17.03;10.13;;;;;;;;;;741320;187;913065;-62
2022/04/25 00:03:26;;;;;;;19.80;11.27;;;;;;;;;;750625;186;920516;-63
2022/04/25 00:05:52;;;;;;;23.83;10.57;;;;;;;;;;756339;183;919075;-62
2022/04/25 00:08:18;;;;;;;37.47;11.30;;;;;;;;;;758609;184;919973;-62
2022/04/25 00:10:43;;;;;;;22.40;10.07;;;;;;;;;;749737;185;918767;-62
2022/04/25 00:13:11;;;;;;;24.33;9.33;;;;;;;;;;756769;184;917911;-62
2022/04/25 00:15:35;;;;;;;30.33;10.13;;;;;;;;;;757985;184;915542;-62
2022/04/25 00:18:01;;;;;;;34.10;11.93;;;;;;;;;;754508;184;915781;-63
2022/04/25 00:20:27;;;;;;;15.63;9.37;;;;;;;;;;750113;181;916007;-62
2022/04/25 00:22:53;;;;;;;19.23;11.00;;;;;;;;;;759081;183;919330;-61
2022/04/25 00:25:18;;;;;;;12.90;8.63;;;;;;;;;;762860;184;918538;-62
2022/04/25 00:27:44;;;;;;;14.20;8.03;;;;;;;;;;756169;183;920221;-62
2022/04/25 00:30:11;;;;;;;48.33;10.88;;;;;;;;;;754301;184;1020271;-61
2022/04/25 00:32:36;;;;;;;14.10;7.60;;;;;;;;;;763724;184;919256;-62
2022/04/25 00:35:04;;;;;;;17.90;8.80;;;;;;;;;;744740;187;925505;-62
2022/04/25 00:37:29;;;;;;;10.47;7.70;;;;;;;;;;760853;181;919510;-63
2022/04/25 00:39:55;;;;;;;10.93;7.80;;;;;;;;;;760968;182;919044;-61
2022/04/25 00:42:20;;;;;;;14.53;7.87;;;;;;;;;;765978;183;919111;-62
2022/04/25 00:44:46;;;;;;;22.93;8.60;;;;;;;;;;757518;181;919156;-62
2022/04/25 00:47:12;;;;;;;13.00;7.33;;;;;;;;;;760034;182;919746;-63
2022/04/25 00:49:38;;;;;;;10.77;7.17;;;;;;;;;;767364;183;918457;-62
2022/04/25 00:52:04;;;;;;;18.83;10.03;;;;;;;;;;754537;184;918637;-62
2022/04/25 00:54:32;;;;;;;13.77;8.70;;;;;;;;;;751916;184;1046564;-63
2022/04/25 00:56:56;;;;;;;27.83;10.27;;;;;;;;;;764119;184;919086;-61
2022/04/25 00:59:22;;;;;;;50.63;11.60;;;;;;;;;;759711;184;918413;-63
2022/04/25 01:01:48;;;;;;;20.53;10.47;;;;;;;;;;756240;184;918068;-63
2022/04/25 01:04:13;;;;;;;38.07;11.67;;;;;;;;;;749936;184;919806;-62
2022/04/25 01:06:39;;;;;;;53.50;12.03;;;;;;;;;;765328;182;920496;-61
2022/04/25 01:09:05;;;;;;;44.27;11.53;;;;;;;;;;761359;183;919926;-62
2022/04/25 01:11:31;;;;;;;47.83;11.67;;;;;;;;;;759003;184;920136;-61
2022/04/25 01:13:57;;;;;;;17.43;10.20;;;;;;;;;;763546;184;919843;-62
2022/04/25 01:16:23;;;;;;;29.67;10.40;;;;;;;;;;758341;184;919518;-62
2022/04/25 01:18:48;;;;;;;23.77;10.30;;;;;;;;;;749553;185;919361;-63
2022/04/25 01:21:14;;;;;;;24.33;13.87;;;;;;;;;;759881;184;918322;-61
2022/04/25 01:28:44;;;;;;;21.33;12.20;;;;;;;;;;756570;184;918695;-63
2022/04/25 01:31:10;;;;;;;28.33;11.57;;;;;;;;;;758140;184;920152;-62
2022/04/25 01:33:35;;;;;;;21.57;11.70;;;;;;;;;;756958;184;919645;-63
2022/04/25 01:36:02;;;;;;;21.10;9.50;;;;;;;;;;757982;184;919485;-62
2022/04/25 01:38:27;;;;;;;13.93;8.63;;;;;;;;;;756101;184;920154;-61
2022/04/25 01:40:53;;;;;;;19.37;9.17;;;;;;;;;;759183;183;919426;-62
2022/04/25 01:43:19;;;;;;;21.13;9.90;;;;;;;;;;763205;183;918692;-61
2022/04/25 01:45:45;;;;;;;14.17;10.23;;;;;;;;;;756370;184;919135;-63
2022/04/25 01:48:11;;;;;;;14.20;10.53;;;;;;;;;;754631;184;918960;-62
2022/04/25 01:50:37;;;;;;;15.97;9.90;;;;;;;;;;758108;182;919529;-61
2022/04/25 01:53:02;;;;;;;16.43;9.13;;;;;;;;;;758838;184;918285;-61
2022/04/25 01:55:28;;;;;;;14.67;10.07;;;;;;;;;;761201;184;919560;-62
2022/04/25 01:57:54;;;;;;;17.60;10.97;;;;;;;;;;760113;184;1020357;-61
2022/04/25 02:00:21;;;;;;;14.73;10.73;;;;;;;;;;756346;184;919713;-62
2022/04/25 02:02:46;;;;;;;21.27;11.60;;;;;;;;;;761806;184;919655;-63
2022/04/25 02:05:12;;;;;;;20.33;11.77;;;;;;;;;;753774;183;920548;-63
2022/04/25 02:07:37;;;;;;;17.67;12.53;;;;;;;;;;759874;183;920186;-61
2022/04/25 02:10:04;;;;;;;17.60;11.93;;;;;;;;;;755569;183;1021762;-62
2022/04/25 02:12:29;;;;;;;20.80;12.40;;;;;;;;;;757583;184;918422;-62
2022/04/25 02:14:55;;;;;;;20.33;12.17;;;;;;;;;;750190;184;919176;-62
2022/04/25 02:17:21;;;;;;;21.10;12.50;;;;;;;;;;750521;183;919639;-62
2022/04/25 02:19:47;;;;;;;21.67;11.73;;;;;;;;;;761012;184;890882;-61
2022/04/25 02:22:13;;;;;;;22.40;12.77;;;;;;;;;;759167;183;919000;-64
2022/04/25 02:24:39;;;;;;;21.57;12.73;;;;;;;;;;753252;183;1020373;-62
2022/04/25 02:27:05;;;;;;;22.27;12.80;;;;;;;;;;754529;184;917891;-62
2022/04/25 02:29:30;;;;;;;22.97;13.20;;;;;;;;;;750661;185;920106;-62
2022/04/25 02:31:56;;;;;;;26.40;13.80;;;;;;;;;;755704;184;919229;-62
2022/04/25 02:34:22;;;;;;;20.70;12.47;;;;;;;;;;752328;184;918360;-62
2022/04/25 02:36:48;;;;;;;17.53;11.27;;;;;;;;;;755610;187;914045;-62
2022/04/25 02:39:14;;;;;;;21.37;12.13;;;;;;;;;;761513;183;978615;-62
2022/04/25 02:41:40;;;;;;;20.47;12.70;;;;;;;;;;755100;184;919452;-61
2022/04/25 02:44:05;;;;;;;17.30;11.70;;;;;;;;;;763311;184;919410;-62
2022/04/25 02:46:31;;;;;;;20.87;10.87;;;;;;;;;;751755;184;919065;-62
2022/04/25 02:48:57;;;;;;;15.37;11.10;;;;;;;;;;753094;185;919891;-62
2022/04/25 02:51:23;;;;;;;19.77;11.30;;;;;;;;;;760829;183;918664;-62
2022/04/25 02:53:49;;;;;;;18.90;10.60;;;;;;;;;;762141;183;918916;-62
2022/04/25 02:56:15;;;;;;;21.00;11.77;;;;;;;;;;761836;183;919193;-61
2022/04/25 02:58:41;;;;;;;17.17;10.30;;;;;;;;;;759665;184;1020065;-61
2022/04/25 03:01:07;;;;;;;17.87;11.17;;;;;;;;;;764070;182;618532;-61
2022/04/25 03:03:33;;;;;;;16.77;10.03;;;;;;;;;;760027;184;616889;-62
2022/04/25 03:05:59;;;;;;;25.33;14.73;;;;;;;;;;757112;184;921106;-61
2022/04/25 03:08:25;;;;;;;18.80;11.33;;;;;;;;;;753645;186;920089;-61
2022/04/25 03:10:52;;;;;;;21.27;11.33;;;;;;;;;;748074;186;919443;-61
2022/04/25 03:13:18;;;;;;;16.67;10.47;;;;;;;;;;742652;187;916894;-62
2022/04/25 03:15:44;;;;;;;14.60;9.47;;;;;;;;;;763467;184;917517;-62
2022/04/25 03:18:10;;;;;;;17.87;11.10;;;;;;;;;;762256;183;916888;-61
2022/04/25 03:20:35;;;;;;;15.80;9.30;;;;;;;;;;758470;183;915636;-62
2022/04/25 03:23:01;;;;;;;21.17;12.23;;;;;;;;;;761742;183;920520;-62
2022/04/25 03:25:27;;;;;;;16.50;10.17;;;;;;;;;;757620;183;919604;-61
2022/04/25 03:27:53;;;;;;;16.30;10.17;;;;;;;;;;755263;183;920116;-61
2022/04/25 03:30:19;;;;;;;20.27;12.30;;;;;;;;;;755781;184;919589;-61
2022/04/25 03:32:45;;;;;;;21.17;13.07;;;;;;;;;;761050;183;917912;-61
2022/04/25 03:35:11;;;;;;;22.90;12.97;;;;;;;;;;755901;184;919396;-63
2022/04/25 03:37:37;;;;;;;19.47;11.40;;;;;;;;;;756985;184;920006;-62
2022/04/25 03:40:05;;;;;;;25.13;12.67;;;;;;;;;;765813;183;921042;-61
2022/04/25 03:42:29;;;;;;;22.70;13.87;;;;;;;;;;761188;184;920502;-61
2022/04/25 03:44:55;;;;;;;21.92;13.20;;;;;;;;;;758996;184;920217;-62
2022/04/25 03:47:20;;;;;;;17.90;11.70;;;;;;;;;;760716;184;920425;-62
2022/04/25 03:49:46;;;;;;;20.10;13.68;;;;;;;;;;754683;184;918261;-61
2022/04/25 03:52:12;;;;;;;20.17;12.40;;;;;;;;;;756574;184;917791;-61
2022/04/25 03:57:10;;;;;;;18.93;13.17;;;;;;;;;;762648;183;916199;-62
2022/04/25 03:59:36;;;;;;;21.27;13.43;;;;;;;;;;754565;184;919194;-61
2022/04/25 04:02:02;;;;;;;20.83;13.33;;;;;;;;;;755158;183;918939;-61
2022/04/25 04:04:27;;;;;;;25.13;13.20;;;;;;;;;;761789;184;919337;-62
2022/04/25 04:06:53;;;;;;;23.53;13.33;;;;;;;;;;758869;184;635909;-62
2022/04/25 04:11:52;;;;;;;18.60;13.07;;;;;;;;;;762612;182;625906;-62
2022/04/25 04:14:16;;;;;;;22.37;12.10;;;;;;;;;;758905;183;919374;-62
2022/04/25 04:16:42;;;;;;;17.77;10.20;;;;;;;;;;756383;182;918553;-61
2022/04/25 04:19:08;;;;;;;18.93;10.57;;;;;;;;;;762299;182;919369;-62
2022/04/25 04:21:34;;;;;;;18.30;11.10;;;;;;;;;;764144;182;619236;-62
2022/04/25 04:24:01;;;;;;;19.50;10.50;;;;;;;;;;754368;184;627689;-62
2022/04/25 04:26:26;;;;;;;17.90;12.20;;;;;;;;;;756908;184;626301;-61
2022/04/25 04:28:51;;;;;;;16.20;11.67;;;;;;;;;;759320;183;621891;-61
2022/04/25 04:31:17;;;;;;;21.37;12.90;;;;;;;;;;755640;183;911289;-61
2022/04/25 04:33:43;;;;;;;34.23;14.60;;;;;;;;;;751605;183;918875;-60
2022/04/25 04:38:41;;;;;;;25.80;15.00;;;;;;;;;;763543;184;919350;-63
2022/04/25 04:41:06;;;;;;;25.63;14.97;;;;;;;;;;758194;184;919380;-60
2022/04/25 04:43:32;;;;;;;23.50;13.80;;;;;;;;;;758022;184;924823;-61
2022/04/25 04:45:59;;;;;;;22.37;14.30;;;;;;;;;;764674;183;969875;-61
2022/04/25 04:48:26;;;;;;;28.90;14.87;;;;;;;;;;748632;187;919457;-61
2022/04/25 04:50:55;;;;;;;22.33;13.60;;;;;;;;;;752282;183;918640;-61
2022/04/25 04:53:17;;;;;;;21.27;13.77;;;;;;;;;;745260;186;926946;-61
2022/04/25 04:55:43;;;;;;;23.40;14.07;;;;;;;;;;746332;187;918763;-61
2022/04/25 04:58:08;;;;;;;23.73;14.27;;;;;;;;;;728033;191;2091472;-61
2022/04/25 05:00:34;;;;;;;25.50;15.37;;;;;;;;;;734535;190;919032;-61
2022/04/25 05:03:00;;;;;;;28.67;17.47;;;;;;;;;;735865;190;922680;-61
2022/04/25 05:05:27;;;;;;;26.50;17.33;;;;;;;;;;739047;186;918901;-61
2022/04/25 05:07:52;;;;;;;30.53;16.00;;;;;;;;;;752860;183;919312;-63
2022/04/25 05:10:18;;;;;;;35.00;19.17;;;;;;;;;;761273;183;918835;-61
2022/04/25 05:12:44;;;;;;;30.87;19.77;;;;;;;;;;759565;183;629787;-61
2022/04/25 05:15:10;;;;;;;33.60;20.37;;;;;;;;;;763484;183;919245;-62
2022/04/25 05:17:36;;;;;;;38.60;20.87;;;;;;;;;;761578;183;918513;-61
2022/04/25 05:20:02;;;;;;;43.13;22.77;;;;;;;;;;760413;185;913748;-62
2022/04/25 05:22:28;;;;;;;40.10;21.57;;;;;;;;;;753424;184;915777;-61
2022/04/25 05:24:54;;;;;;;37.47;23.10;;;;;;;;;;755969;183;1836572;-61
2022/04/25 05:27:21;;;;;;;38.60;22.27;;;;;;;;;;765325;182;916557;-62
2022/04/25 05:29:46;;;;;;;41.93;21.83;;;;;;;;;;761560;180;914695;-61
2022/04/25 05:32:12;;;;;;;39.17;23.20;;;;;;;;;;761628;182;918942;-61
2022/04/25 05:34:39;;;;;;;34.43;22.83;;;;;;;;;;770631;183;627251;-61
2022/04/25 05:37:04;;;;;;;34.20;19.30;;;;;;;;;;761809;183;918936;-63
2022/04/25 05:39:31;;;;;;;45.63;22.93;;;;;;;;;;757623;184;916567;-61
2022/04/25 05:41:56;;;;;;;46.57;23.90;;;;;;;;;;751298;183;916235;-61
2022/04/25 05:44:22;;;;;;;34.73;20.60;;;;;;;;;;765822;183;915908;-61
2022/04/25 05:46:48;;;;;;;33.93;19.80;;;;;;;;;;761203;183;916138;-62
2022/04/25 05:54:17;;;;;;;24.47;15.60;;;;;;;;;;761497;184;917640;-61
2022/04/25 05:56:43;;;;;;;23.70;13.63;;;;;;;;;;754347;184;916219;-61
2022/04/25 05:59:09;;;;;;;22.50;12.53;;;;;;;;;;749126;184;915953;-61
2022/04/25 06:01:34;;;;;;;19.00;12.43;;;;;;;;;;757992;184;919902;-61
2022/04/25 06:04:00;;;;;;;21.43;12.40;;;;;;;;;;762688;183;914879;-62
2022/04/25 06:06:26;;;;;;;19.50;11.07;;;;;;;;;;761619;183;922296;-62
2022/04/25 06:08:52;;;;;;;17.60;13.43;;;;;;;;;;758969;184;919597;-61
2022/04/25 06:11:18;;;;;;;21.53;13.53;;;;;;;;;;759917;183;919947;-63
2022/04/25 06:13:44;;;;;;;19.23;13.80;;;;;;;;;;752541;184;918975;-61
2022/04/25 06:16:09;;;;;;;24.73;13.97;;;;;;;;;;753879;184;919387;-61
2022/04/25 06:18:35;;;;;;;16.97;11.90;;;;;;;;;;761883;183;919093;-62
2022/04/25 06:21:01;;;;;;;21.70;12.67;;;;;;;;;;749875;184;2147753;-63
2022/04/25 06:23:27;;;;;;;19.70;11.75;;;;;;;;;;757718;184;919477;-61
2022/04/25 06:25:53;;;;;;;19.57;12.13;;;;;;;;;;764269;184;918362;-62
2022/04/25 06:28:19;;;;;;;19.47;11.03;;;;;;;;;;755465;184;919627;-62
2022/04/25 06:30:45;;;;;;;20.17;14.40;;;;;;;;;;757899;184;1022925;-62
2022/04/25 06:33:10;;;;;;;17.60;12.33;;;;;;;;;;761213;184;918623;-62
2022/04/25 06:35:37;;;;;;;20.67;13.57;;;;;;;;;;755981;182;919576;-62
2022/04/25 06:38:02;;;;;;;18.30;13.30;;;;;;;;;;754838;184;918487;-63
2022/04/25 06:40:29;;;;;;;27.37;13.95;;;;;;;;;;763048;184;919081;-61
2022/04/25 06:42:56;;;;;;;20.00;13.27;;;;;;;;;;760444;182;915518;-63
2022/04/25 06:45:20;;;;;;;23.13;14.87;;;;;;;;;;755912;183;915182;-64
2022/04/25 06:47:46;;;;;;;23.13;15.00;;;;;;;;;;757099;184;624845;-63
2022/04/25 06:50:12;;;;;;;29.87;16.30;;;;;;;;;;768554;183;686040;-63
2022/04/25 06:52:38;;;;;;;19.07;12.90;;;;;;;;;;766898;183;616313;-64
2022/04/25 06:55:05;;;;;;;21.63;14.13;;;;;;;;;;763024;184;632740;-63
2022/04/25 06:57:33;;;;;;;21.03;13.60;;;;;;;;;;765453;183;622249;-63
2022/04/25 06:59:56;;;;;;;18.53;12.53;;;;;;;;;;761059;184;636451;-64
2022/04/25 07:02:22;;;;;;;16.60;11.10;;;;;;;;;;748039;184;917730;-63
2022/04/25 07:04:49;;;;;;;20.62;13.40;;;;;;;;;;756426;184;919352;-63
2022/04/25 07:07:16;;;;;;;18.00;12.73;;;;;;;;;;754461;183;918947;-64
2022/04/25 07:09:41;;;;;;;18.57;11.67;;;;;;;;;;743372;188;924212;-63
2022/04/25 07:12:07;;;;;;;17.90;12.20;;;;;;;;;;758803;184;922150;-63
2022/04/25 07:14:33;;;;;;;16.83;10.80;;;;;;;;;;752739;183;918458;-64
2022/04/25 07:17:01;;;;;;;18.60;12.33;;;;;;;;;;749326;184;918857;-63
2022/04/25 07:19:24;;;;;;;17.83;12.90;;;;;;;;;;750060;185;918643;-63
2022/04/25 07:29:25;;;;;;;18.20;13.20;;;;;;;;;;756003;185;914722;-63
2022/04/25 07:31:52;;;;;;;18.93;14.50;;;;;;;;;;747240;188;919931;-63
2022/04/25 07:34:18;;;;;;;19.43;14.57;;;;;;;;;;764601;180;919560;-64
2022/04/25 07:36:43;;;;;;;17.03;14.23;;;;;;;;;;744734;187;920532;-63
2022/04/25 07:39:09;;;;;;;20.97;15.27;;;;;;;;;;750539;187;915650;-64
2022/04/25 07:41:35;;;;;;;20.70;17.27;;;;;;;;;;748187;187;915442;-63
2022/04/25 07:44:01;;;;;;;26.10;16.67;;;;;;;;;;749684;184;918565;-63
2022/04/25 07:46:28;;;;;;;22.83;17.00;;;;;;;;;;757676;182;918715;-65
2022/04/25 07:48:53;;;;;;;20.20;14.70;;;;;;;;;;762223;183;919240;-64
2022/04/25 07:51:19;;;;;;;17.63;14.53;;;;;;;;;;761358;184;918239;-63
2022/04/25 07:53:44;;;;;;;29.60;16.80;;;;;;;;;;757957;184;919914;-64
2022/04/25 07:56:10;;;;;;;18.33;13.57;;;;;;;;;;766265;183;1021350;-63
2022/04/25 07:58:37;;;;;;;14.27;11.93;;;;;;;;;;757606;183;919255;-63
2022/04/25 08:01:02;;;;;;;19.07;12.33;;;;;;;;;;760795;181;918671;-63
2022/04/25 08:03:28;;;;;;;15.57;12.77;;;;;;;;;;759206;183;919026;-63
2022/04/25 08:05:54;;;;;;;18.00;12.97;;;;;;;;;;763450;184;918529;-64
2022/04/25 08:08:19;;;;;;;19.40;12.50;;;;;;;;;;754348;184;919234;-64
2022/04/25 08:10:45;;;;;;;20.70;14.50;;;;;;;;;;754522;184;918799;-63
2022/04/25 08:18:14;;;;;;;16.10;11.70;;;;;;;;;;764986;183;626825;-63
2022/04/25 08:20:40;;;;;;;14.23;11.00;;;;;;;;;;765541;183;629218;-62
2022/04/25 08:23:08;;;;;;;16.40;12.90;;;;;;;;;;763164;184;617812;-64
2022/04/25 08:25:32;;;;;;;14.23;12.73;;;;;;;;;;758447;184;640705;-63
2022/04/25 08:27:58;;;;;;;17.23;13.02;;;;;;;;;;758466;183;919273;-63
2022/04/25 08:30:23;;;;;;;15.60;12.17;;;;;;;;;;760045;184;919478;-63
2022/04/25 08:32:49;;;;;;;22.37;15.02;;;;;;;;;;762463;183;918530;-64
2022/04/25 08:35:15;;;;;;;19.70;15.87;;;;;;;;;;757144;183;919429;-63
2022/04/25 08:37:41;;;;;;;15.90;12.40;;;;;;;;;;755819;184;918993;-63
2022/04/25 08:40:07;;;;;;;17.67;13.85;;;;;;;;;;747782;185;919109;-63
2022/04/25 08:42:33;;;;;;;16.33;12.90;;;;;;;;;;751655;184;919305;-63
2022/04/25 08:44:59;;;;;;;17.87;13.57;;;;;;;;;;747135;187;918426;-63
2022/04/25 08:47:25;;;;;;;16.70;13.60;;;;;;;;;;759975;184;918672;-63
2022/04/25 08:49:51;;;;;;;18.87;14.93;;;;;;;;;;757943;184;919472;-63
2022/04/25 08:52:17;;;;;;;18.97;13.97;;;;;;;;;;755237;184;919562;-64
2022/04/25 08:54:43;;;;;;;22.10;15.70;;;;;;;;;;759737;184;919180;-62
2022/04/25 08:57:08;;;;;;;19.03;14.97;;;;;;;;;;759113;181;918366;-63
2022/04/25 08:59:34;;;;;;;17.30;14.60;;;;;;;;;;758012;182;919247;-62
2022/04/25 09:02:00;;;;;;;18.73;14.80;;;;;;;;;;760249;184;919219;-64
2022/04/25 09:04:26;;;;;;;19.90;16.77;;;;;;;;;;756866;182;919851;-63
2022/04/25 09:06:52;;;;;;;21.27;16.03;;;;;;;;;;756397;183;919654;-63
2022/04/25 09:09:18;;;;;;;19.10;17.10;;;;;;;;;;757392;183;937890;-64
2022/04/25 09:14:15;;;;;;;23.40;20.27;;;;;;;;;;750303;183;918624;-62
2022/04/25 09:16:41;;;;;;;25.53;18.47;;;;;;;;;;752784;184;919898;-64
2022/04/25 09:19:07;;;;;;;21.37;18.40;;;;;;;;;;752756;185;919472;-63
2022/04/25 09:21:33;;;;;;;19.80;15.20;;;;;;;;;;754392;184;919102;-63
2022/04/25 09:23:59;;;;;;;18.27;15.37;;;;;;;;;;756482;184;919072;-62
2022/04/25 09:26:28;;;;;;;20.37;16.00;;;;;;;;;;760250;184;920819;-62
2022/04/25 09:28:52;;;;;;;12.00;9.70;;;;;;;;;;760028;183;918555;-63
2022/04/25 09:31:17;;;;;;;12.30;9.93;;;;;;;;;;754633;184;918452;-62
2022/04/25 09:33:43;;;;;;;17.20;11.65;;;;;;;;;;757328;184;920224;-63
2022/04/25 09:36:09;;;;;;;12.30;9.63;;;;;;;;;;758638;184;919636;-65
2022/04/25 09:38:36;;;;;;;11.00;9.13;;;;;;;;;;754803;184;920287;-63
2022/04/25 09:41:02;;;;;;;11.20;8.30;;;;;;;;;;754607;184;923464;-63
2022/04/25 09:43:29;;;;;;;10.20;8.00;;;;;;;;;;761037;184;919340;-63
2022/04/25 09:45:54;;;;;;;10.70;8.33;;;;;;;;;;757045;183;920175;-63
2022/04/25 09:48:20;;;;;;;14.37;10.50;;;;;;;;;;754196;184;1026622;-64
2022/04/25 09:50:52;;;;;;;10.20;8.30;;;;;;;;;;756569;184;1018910;-63
2022/04/25 09:53:18;;;;;;;10.33;8.77;;;;;;;;;;762104;184;918629;-65
2022/04/25 09:55:43;;;;;;;11.17;9.37;;;;;;;;;;757651;185;919435;-64
2022/04/25 09:58:16;;;;;;;7.90;6.43;;;;;;;;;;757871;184;918435;-65
2022/04/25 10:00:39;;;;;;;9.30;7.33;;;;;;;;;;757138;184;920254;-64
2022/04/25 10:03:05;;;;;;;9.53;7.70;;;;;;;;;;762427;184;917969;-66
2022/04/25 10:05:36;;;;;;;9.10;5.00;;;;;;;;;;757542;184;919235;-65
2022/04/25 10:08:01;;;;;;;7.50;6.20;;;;;;;;;;755064;184;919472;-65
2022/04/25 10:10:27;;;;;;;9.67;7.47;;;;;;;;;;756646;182;920062;-65
2022/04/25 10:12:55;;;;;;;7.17;6.40;;;;;;;;;;751900;184;919588;-65
2022/04/25 10:15:19;;;;;;;9.77;7.90;;;;;;;;;;753711;184;919599;-65
2022/04/25 10:17:45;;;;;;;12.50;9.57;;;;;;;;;;750855;184;918568;-65
2022/04/25 10:20:11;;;;;;;13.40;8.75;;;;;;;;;;763178;184;919339;-65
2022/04/25 10:22:36;;;;;;;12.40;10.07;;;;;;;;;;758991;184;920180;-65
2022/04/25 10:25:03;;;;;;;12.70;10.60;;;;;;;;;;757939;184;919209;-65
2022/04/25 10:27:28;;;;;;;13.43;10.70;;;;;;;;;;762066;183;919579;-65
2022/04/25 10:29:54;;;;;;;13.67;10.70;;;;;;;;;;758592;184;919512;-66
2022/04/25 10:32:21;;;;;;;11.10;8.00;;;;;;;;;;757319;183;918989;-65
2022/04/25 10:34:47;;;;;;;9.00;7.07;;;;;;;;;;762457;183;934625;-65
2022/04/25 10:37:18;;;;;;;8.30;6.40;;;;;;;;;;759738;183;918736;-65
2022/04/25 10:39:45;;;;;;;10.83;7.33;;;;;;;;;;754362;182;919450;-66
2022/04/25 10:44:48;;;;;;;8.97;7.03;;;;;;;;;;758734;184;919226;-65
2022/04/25 10:47:15;;;;;;;10.40;6.90;;;;;;;;;;763243;184;919012;-65
2022/04/25 10:49:42;;;;;;;7.90;7.10;;;;;;;;;;756173;183;918935;-65
2022/04/25 10:52:08;;;;;;;11.43;9.57;;;;;;;;;;750799;183;919648;-65
2022/04/25 10:54:38;;;;;;;9.17;6.83;;;;;;;;;;758200;183;922566;-66
2022/04/25 10:57:15;;;;;;;12.47;7.17;;;;;;;;;;752461;184;919230;-65
2022/04/25 10:59:41;;;;;;;10.30;7.17;;;;;;;;;;754062;184;919640;-66
2022/04/25 11:02:12;;;;;;;10.30;6.85;;;;;;;;;;755644;184;919304;-66
2022/04/25 11:04:39;;;;;;;9.43;7.00;;;;;;;;;;761782;183;919590;-65
2022/04/25 11:07:10;;;;;;;9.50;7.27;;;;;;;;;;750455;181;911716;-66
2022/04/25 11:09:36;;;;;;;10.93;7.00;;;;;;;;;;759363;183;920248;-66
2022/04/25 11:12:02;;;;;;;7.60;6.57;;;;;;;;;;752835;183;919004;-65
2022/04/25 11:14:29;;;;;;;8.25;6.65;;;;;;;;;;760722;184;920013;-64
2022/04/25 11:16:59;;;;;;;7.93;6.80;;;;;;;;;;757220;184;919531;-66
2022/04/25 11:19:25;;;;;;;9.63;7.47;;;;;;;;;;756033;184;918967;-66
2022/04/25 11:21:55;;;;;;;8.67;7.20;;;;;;;;;;755120;183;918439;-65
2022/04/25 11:24:24;;;;;;;8.80;6.40;;;;;;;;;;762343;183;919075;-65
2022/04/25 11:27:03;;;;;;;8.00;6.63;;;;;;;;;;756819;182;918452;-66
2022/04/25 11:29:29;;;;;;;7.17;5.70;;;;;;;;;;759361;184;915254;-66
2022/04/25 11:32:01;;;;;;;7.20;5.83;;;;;;;;;;757996;184;915731;-66
2022/04/25 11:34:27;;;;;;;6.10;5.20;;;;;;;;;;754027;184;915818;-65
2022/04/25 11:36:53;;;;;;;10.67;6.17;;;;;;;;;;760730;184;915386;-67
2022/04/25 11:41:50;;;;;;;9.17;6.87;;;;;;;;;;755091;181;919801;-66
2022/04/25 11:44:16;;;;;;;8.43;6.93;;;;;;;;;;761106;184;936837;-66
2022/04/25 11:46:46;;;;;;;9.50;7.00;;;;;;;;;;755012;184;1222156;-66
2022/04/25 11:49:10;;;;;;;7.33;6.10;;;;;;;;;;757345;183;915813;-66
2022/04/25 11:51:37;;;;;;;7.35;6.20;;;;;;;;;;748418;186;915444;-65
2022/04/25 11:54:05;;;;;;;10.90;7.53;;;;;;;;;;752433;184;918328;-66
2022/04/25 11:56:31;;;;;;;8.53;6.57;;;;;;;;;;727636;190;919215;-66
2022/04/25 11:58:56;;;;;;;8.70;7.27;;;;;;;;;;740715;187;915915;-66
2022/04/25 12:01:28;;;;;;;9.43;8.17;;;;;;;;;;757815;183;912551;-66
2022/04/25 12:03:54;;;;;;;12.80;7.33;;;;;;;;;;757224;184;909296;-66
2022/04/25 12:06:20;;;;;;;9.57;7.90;;;;;;;;;;749345;184;914906;-66
2022/04/25 12:16:20;;;;;;;8.90;5.77;;;;;;;;;;729598;189;920935;-67
2022/04/25 12:18:46;;;;;;;8.70;6.70;;;;;;;;;;719558;192;919069;-67
2022/04/25 12:21:12;;;;;;;9.43;7.00;;;;;;;;;;744019;188;918739;-66
2022/04/25 12:23:41;;;;;;;9.47;6.50;;;;;;;;;;724506;191;918732;-66
2022/04/25 12:26:08;;;;;;;5.30;4.43;;;;;;;;;;719479;189;918347;-67
2022/04/25 12:28:31;;;;;;;7.40;5.53;;;;;;;;;;725780;189;920291;-66
2022/04/25 12:30:58;;;;;;;6.23;4.23;;;;;;;;;;745597;188;918863;-66
2022/04/25 12:33:24;;;;;;;4.87;4.10;;;;;;;;;;741724;188;918817;-66
2022/04/25 12:35:51;;;;;;;5.50;3.83;;;;;;;;;;750735;186;919370;-66
2022/04/25 12:38:21;;;;;;;5.10;4.00;;;;;;;;;;768217;182;919781;-66
2022/04/25 12:40:53;;;;;;;5.00;3.53;;;;;;;;;;760817;184;920011;-67
2022/04/25 12:43:25;;;;;;;5.60;3.90;;;;;;;;;;757590;184;919341;-67
2022/04/25 12:45:51;;;;;;;3.80;3.40;;;;;;;;;;758778;183;1017860;-66
2022/04/25 12:48:17;;;;;;;5.83;3.53;;;;;;;;;;770833;183;919063;-67
2022/04/25 12:50:43;;;;;;;5.23;3.93;;;;;;;;;;760761;183;920516;-67
2022/04/25 12:53:09;;;;;;;5.27;3.80;;;;;;;;;;750159;184;919970;-66
2022/04/25 12:55:41;;;;;;;5.27;3.33;;;;;;;;;;749809;184;919734;-66
2022/04/25 12:58:06;;;;;;;4.60;3.40;;;;;;;;;;732569;191;916468;-66
2022/04/25 13:00:38;;;;;;;7.47;4.40;;;;;;;;;;719722;191;915741;-66
2022/04/25 13:03:04;;;;;;;5.43;2.97;;;;;;;;;;746770;186;916662;-66
2022/04/25 13:05:30;;;;;;;3.80;2.50;;;;;;;;;;750567;181;919227;-66
2022/04/25 13:07:56;;;;;;;4.30;2.30;;;;;;;;;;755833;184;919018;-65
2022/04/25 13:10:22;;;;;;;5.17;3.07;;;;;;;;;;753081;186;918873;-65
2022/04/25 13:12:50;;;;;;;5.47;3.77;;;;;;;;;;753953;186;918914;-66
2022/04/25 13:15:15;;;;;;;5.60;3.40;;;;;;;;;;768916;183;919007;-66
2022/04/25 13:17:41;;;;;;;5.57;3.70;;;;;;;;;;764918;183;919734;-66
2022/04/25 13:20:07;;;;;;;6.70;4.37;;;;;;;;;;760756;183;919261;-66
2022/04/25 13:22:34;;;;;;;5.50;4.30;;;;;;;;;;752148;185;919028;-65
2022/04/25 13:25:00;;;;;;;4.30;3.60;;;;;;;;;;747022;184;919831;-66
2022/04/25 13:27:26;;;;;;;5.37;3.80;;;;;;;;;;756672;184;918848;-66
2022/04/25 13:29:52;;;;;;;6.93;5.20;;;;;;;;;;751769;185;918836;-67
2022/04/25 13:32:18;;;;;;;5.33;3.63;;;;;;;;;;761308;185;919930;-66
2022/04/25 13:34:43;;;;;;;5.37;4.30;;;;;;;;;;726842;190;919621;-66
2022/04/25 13:37:10;;;;;;;5.90;4.10;;;;;;;;;;755963;184;918270;-66
2022/04/25 13:39:35;;;;;;;6.33;3.27;;;;;;;;;;752257;187;919596;-69
2022/04/25 13:42:01;;;;;;;5.87;4.00;;;;;;;;;;756237;184;918769;-66
2022/04/25 13:44:27;;;;;;;4.40;3.03;;;;;;;;;;756776;182;1012202;-65
2022/04/25 13:46:53;;;;;;;5.30;3.27;;;;;;;;;;763099;183;910623;-65
2022/04/25 13:49:19;;;;;;;7.40;3.40;;;;;;;;;;760826;182;920368;-64
2022/04/25 13:51:45;;;;;;;4.53;3.10;;;;;;;;;;753477;183;919117;-64
2022/04/25 13:54:11;;;;;;;2.90;1.80;;;;;;;;;;755422;183;918644;-64
2022/04/25 13:56:37;;;;;;;4.10;2.97;;;;;;;;;;756173;184;919655;-64
2022/04/25 13:59:02;;;;;;;4.57;3.40;;;;;;;;;;753865;184;919886;-64
2022/04/25 14:01:28;;;;;;;5.20;3.80;;;;;;;;;;755598;183;919581;-64
2022/04/25 14:03:54;;;;;;;6.67;4.30;;;;;;;;;;761252;184;918873;-64
2022/04/25 14:06:20;;;;;;;6.97;4.70;;;;;;;;;;756250;184;918473;-64
2022/04/25 14:08:46;;;;;;;5.83;4.10;;;;;;;;;;751231;184;920454;-66
2022/04/25 14:11:12;;;;;;;6.43;4.77;;;;;;;;;;761580;183;1021932;-64
2022/04/25 14:13:37;;;;;;;5.77;4.20;;;;;;;;;;753544;183;1035977;-63
2022/04/25 14:16:03;;;;;;;5.27;4.10;;;;;;;;;;757263;183;918362;-64
2022/04/25 14:18:30;;;;;;;4.80;3.60;;;;;;;;;;763623;183;918394;-62
2022/04/25 14:20:55;;;;;;;4.97;4.07;;;;;;;;;;760344;183;918006;-62
2022/04/25 14:23:21;;;;;;;8.57;5.60;;;;;;;;;;747282;187;919655;-61
2022/04/25 14:25:47;;;;;;;4.07;2.83;;;;;;;;;;741342;188;919049;-61
2022/04/25 14:28:13;;;;;;;6.83;3.00;;;;;;;;;;747162;188;918387;-62
2022/04/25 14:30:41;;;;;;;5.53;3.33;;;;;;;;;;738009;188;920392;-62
2022/04/25 14:33:05;;;;;;;12.00;8.30;;;;;;;;;;747862;186;920085;-61
2022/04/25 14:35:31;;;;;;;14.33;8.97;;;;;;;;;;737505;191;919387;-62
2022/04/25 14:37:57;;;;;;;34.37;21.33;;;;;;;;;;745405;187;919558;-63
2022/04/25 14:40:23;;;;;;;33.17;19.37;;;;;;;;;;750816;181;918706;-62
2022/04/25 14:42:50;;;;;;;12.03;6.90;;;;;;;;;;755951;184;1021704;-63
2022/04/25 14:45:14;;;;;;;12.17;9.30;;;;;;;;;;755075;183;919063;-63
2022/04/25 14:47:43;;;;;;;35.73;23.93;;;;;;;;;;756533;184;1020292;-65
2022/04/25 14:55:22;;;;;;;7.73;5.53;;;;;;;;;;751314;184;919344;-63